Time;durP1;ratioP1;P1;durP2;ratioP2;P2;SDS_P1;SDS_P2;PMS_P1;PMS_P2;Temp;Humidity;BMP_temperature;BMP_pressure;BME280_temperature;BME280_humidity;BME280_pressure;Samples;Min_cycle;Max_cycle;Signal;HPM_P1;HPM_P2
2021/06/09 00:00:21;;;;;;;3.97;3.67;;;;;;;;;;5075529;28;20476;-76
2021/06/09 00:02:47;;;;;;;6.80;4.13;;;;;;;;;;5074086;28;20429;-76
2021/06/09 00:05:13;;;;;;;3.90;3.57;;;;;;;;;;5075383;28;20467;-76
2021/06/09 00:07:39;;;;;;;4.17;3.77;;;;;;;;;;5075318;28;20405;-76
2021/06/09 00:10:06;;;;;;;4.40;4.00;;;;;;;;;;5075540;28;20424;-76
2021/06/09 00:12:33;;;;;;;4.00;3.70;;;;;;;;;;5064406;28;20418;-76
2021/06/09 00:14:59;;;;;;;4.00;3.60;;;;;;;;;;5075527;28;20968;-76
2021/06/09 00:17:25;;;;;;;4.00;3.67;;;;;;;;;;5075258;28;20914;-74
2021/06/09 00:19:51;;;;;;;4.43;4.03;;;;;;;;;;5075199;28;20460;-74
2021/06/09 00:22:17;;;;;;;4.90;4.40;;;;;;;;;;5072495;28;20765;-75
2021/06/09 00:24:45;;;;;;;4.70;4.30;;;;;;;;;;5074954;28;20425;-75
2021/06/09 00:27:11;;;;;;;5.07;4.70;;;;;;;;;;5075387;28;20417;-75
2021/06/09 00:29:37;;;;;;;4.40;4.00;;;;;;;;;;5075129;28;20757;-76
2021/06/09 00:32:03;;;;;;;4.40;4.10;;;;;;;;;;5075094;28;20480;-76
2021/06/09 00:34:30;;;;;;;4.80;4.17;;;;;;;;;;5074820;28;20461;-75
2021/06/09 00:36:56;;;;;;;4.70;4.30;;;;;;;;;;5073461;28;20424;-75
2021/06/09 00:39:22;;;;;;;5.10;4.60;;;;;;;;;;5074750;28;20488;-75
2021/06/09 00:41:48;;;;;;;4.47;4.17;;;;;;;;;;5075358;28;20460;-75
2021/06/09 00:44:14;;;;;;;4.43;4.10;;;;;;;;;;5074184;28;20420;-75
2021/06/09 00:46:42;;;;;;;5.50;5.00;;;;;;;;;;5074899;28;20697;-76
2021/06/09 00:49:09;;;;;;;4.13;3.73;;;;;;;;;;5074666;28;20421;-75
2021/06/09 00:51:35;;;;;;;5.33;4.83;;;;;;;;;;5067988;28;20525;-76
2021/06/09 00:54:03;;;;;;;5.07;4.60;;;;;;;;;;5074610;28;20427;-75
2021/06/09 00:56:30;;;;;;;4.77;4.37;;;;;;;;;;5074934;28;20411;-75
2021/06/09 00:58:56;;;;;;;4.77;4.37;;;;;;;;;;5074488;28;20499;-74
2021/06/09 01:01:25;;;;;;;5.30;4.90;;;;;;;;;;5079354;28;20688;-74
2021/06/09 01:03:51;;;;;;;5.60;5.13;;;;;;;;;;5074067;28;20909;-76
2021/06/09 01:06:17;;;;;;;5.07;4.67;;;;;;;;;;5073179;28;20454;-76
2021/06/09 01:08:44;;;;;;;5.07;4.57;;;;;;;;;;5074190;28;20407;-75
2021/06/09 01:11:14;;;;;;;5.10;4.63;;;;;;;;;;5074527;28;20472;-75
2021/06/09 01:13:40;;;;;;;5.23;4.73;;;;;;;;;;5071899;28;20443;-75
2021/06/09 01:16:07;;;;;;;5.40;4.90;;;;;;;;;;5074361;28;20403;-74
2021/06/09 01:18:33;;;;;;;4.90;4.50;;;;;;;;;;5073996;28;20417;-74
2021/06/09 01:20:59;;;;;;;5.53;5.03;;;;;;;;;;5067054;28;20471;-75
2021/06/09 01:23:26;;;;;;;5.87;4.97;;;;;;;;;;5070705;28;20442;-75
2021/06/09 01:25:53;;;;;;;5.37;4.70;;;;;;;;;;5074128;28;20408;-75
2021/06/09 01:28:19;;;;;;;5.17;4.77;;;;;;;;;;5073960;28;20407;-75
2021/06/09 01:30:46;;;;;;;4.63;4.13;;;;;;;;;;5073922;28;20440;-75
2021/06/09 01:33:12;;;;;;;4.80;4.40;;;;;;;;;;5068360;28;20786;-75
2021/06/09 01:35:38;;;;;;;4.93;4.53;;;;;;;;;;5073945;28;20424;-75
2021/06/09 01:38:05;;;;;;;5.23;4.83;;;;;;;;;;5068216;28;20416;-75
2021/06/09 01:40:31;;;;;;;4.90;4.50;;;;;;;;;;5073586;28;20490;-75
2021/06/09 01:42:58;;;;;;;4.90;4.40;;;;;;;;;;5068566;28;20936;-75
2021/06/09 01:45:29;;;;;;;5.03;4.60;;;;;;;;;;5073680;28;20487;-74
2021/06/09 01:47:55;;;;;;;4.90;4.47;;;;;;;;;;5073234;28;20421;-76
2021/06/09 01:50:22;;;;;;;4.63;4.30;;;;;;;;;;5072470;28;20741;-76
2021/06/09 01:52:49;;;;;;;5.37;4.70;;;;;;;;;;5068941;28;20426;-76
2021/06/09 01:55:16;;;;;;;5.43;3.93;;;;;;;;;;5072546;28;20415;-76
2021/06/09 01:57:42;;;;;;;5.00;4.50;;;;;;;;;;5073185;28;20415;-75
2021/06/09 02:00:13;;;;;;;4.13;3.73;;;;;;;;;;5073113;28;20450;-75
2021/06/09 02:02:39;;;;;;;5.50;5.00;;;;;;;;;;5073293;28;20749;-75
2021/06/09 02:05:09;;;;;;;4.47;4.07;;;;;;;;;;5073059;28;20411;-76
2021/06/09 02:07:39;;;;;;;4.57;4.17;;;;;;;;;;5072905;28;20424;-75
2021/06/09 02:10:07;;;;;;;4.10;3.80;;;;;;;;;;5073051;28;20407;-74
2021/06/09 02:12:33;;;;;;;4.43;4.13;;;;;;;;;;5063545;28;20412;-75
2021/06/09 02:14:59;;;;;;;4.23;3.83;;;;;;;;;;5072939;28;20413;-75
2021/06/09 02:17:25;;;;;;;4.60;4.20;;;;;;;;;;5073194;28;20477;-75
2021/06/09 02:19:52;;;;;;;4.57;4.20;;;;;;;;;;5072653;28;20463;-75
2021/06/09 02:22:18;;;;;;;4.37;3.97;;;;;;;;;;5070252;28;20458;-76
2021/06/09 02:24:47;;;;;;;4.47;4.10;;;;;;;;;;5073103;28;20404;-75
2021/06/09 02:27:13;;;;;;;5.23;4.37;;;;;;;;;;5073577;28;20481;-76
2021/06/09 02:29:39;;;;;;;6.70;4.60;;;;;;;;;;5073714;28;20741;-74
2021/06/09 02:32:05;;;;;;;4.43;4.00;;;;;;;;;;5074113;28;20457;-75
2021/06/09 02:34:36;;;;;;;4.23;3.90;;;;;;;;;;5072808;28;20417;-77
2021/06/09 02:37:02;;;;;;;4.50;4.07;;;;;;;;;;5078973;28;20428;-76
2021/06/09 02:39:28;;;;;;;4.50;4.10;;;;;;;;;;5079736;28;20448;-76
2021/06/09 02:41:54;;;;;;;4.27;3.87;;;;;;;;;;5072722;28;20431;-76
2021/06/09 02:44:20;;;;;;;5.63;3.90;;;;;;;;;;5067802;28;20442;-76
2021/06/09 02:46:56;;;;;;;4.00;3.60;;;;;;;;;;5072579;28;20417;-76
2021/06/09 02:49:23;;;;;;;4.53;3.70;;;;;;;;;;5072638;28;20821;-76
2021/06/09 02:51:56;;;;;;;3.57;3.27;;;;;;;;;;5072720;28;20433;-76
2021/06/09 02:54:25;;;;;;;4.30;3.90;;;;;;;;;;5081270;28;20410;-76
2021/06/09 02:57:03;;;;;;;4.70;3.90;;;;;;;;;;5073126;28;20401;-76
2021/06/09 02:59:51;;;;;;;4.60;3.60;;;;;;;;;;5074816;28;20416;-76
2021/06/09 03:02:31;;;;;;;3.93;3.63;;;;;;;;;;5072014;28;20440;-77
2021/06/09 03:05:02;;;;;;;4.17;3.80;;;;;;;;;;5072218;28;20405;-76
2021/06/09 03:07:30;;;;;;;6.70;3.83;;;;;;;;;;5072259;28;20423;-77
2021/06/09 03:10:12;;;;;;;3.80;3.30;;;;;;;;;;5077112;28;20421;-76
2021/06/09 03:12:48;;;;;;;4.37;3.97;;;;;;;;;;5070386;28;20417;-76
2021/06/09 03:15:18;;;;;;;3.93;3.63;;;;;;;;;;5072004;28;20461;-76
2021/06/09 03:17:51;;;;;;;3.70;3.40;;;;;;;;;;5070857;28;20424;-77
2021/06/09 03:20:24;;;;;;;5.57;3.40;;;;;;;;;;5067041;28;20532;-76
2021/06/09 03:22:59;;;;;;;4.27;3.97;;;;;;;;;;5069285;28;20417;-76
2021/06/09 03:25:29;;;;;;;3.87;3.57;;;;;;;;;;5070992;28;20951;-76
2021/06/09 03:28:07;;;;;;;3.77;3.20;;;;;;;;;;5072497;28;20413;-76
2021/06/09 03:30:35;;;;;;;3.50;3.20;;;;;;;;;;5072180;28;20787;-75
2021/06/09 03:33:02;;;;;;;3.83;3.53;;;;;;;;;;5072017;28;20437;-76
2021/06/09 03:35:36;;;;;;;3.83;3.50;;;;;;;;;;5072289;28;20531;-76
2021/06/09 03:38:04;;;;;;;3.80;3.50;;;;;;;;;;5071977;28;20417;-76
2021/06/09 03:40:31;;;;;;;4.90;4.50;;;;;;;;;;5071948;28;20467;-76
2021/06/09 03:43:01;;;;;;;4.37;3.97;;;;;;;;;;5067100;28;20761;-76
2021/06/09 03:45:28;;;;;;;3.77;3.47;;;;;;;;;;5071998;28;20403;-75
2021/06/09 03:47:55;;;;;;;3.80;3.50;;;;;;;;;;5072094;28;20457;-75
2021/06/09 03:50:22;;;;;;;4.80;4.40;;;;;;;;;;5071132;28;20920;-76
2021/06/09 03:52:49;;;;;;;4.60;4.23;;;;;;;;;;5067831;28;21122;-76
2021/06/09 03:55:15;;;;;;;5.43;4.00;;;;;;;;;;5071901;28;20752;-76
2021/06/09 03:57:43;;;;;;;4.03;3.67;;;;;;;;;;5071799;28;20448;-76
2021/06/09 04:00:09;;;;;;;4.57;4.00;;;;;;;;;;5071579;28;20459;-75
2021/06/09 04:02:36;;;;;;;4.20;3.60;;;;;;;;;;5063473;28;20424;-76
2021/06/09 04:05:02;;;;;;;3.90;3.60;;;;;;;;;;5071709;28;20404;-76
2021/06/09 04:07:29;;;;;;;3.73;3.33;;;;;;;;;;5071741;28;20419;-76
2021/06/09 04:09:58;;;;;;;4.73;3.73;;;;;;;;;;5076732;28;20422;-76
2021/06/09 04:12:24;;;;;;;4.00;3.60;;;;;;;;;;5070337;28;20425;-76
2021/06/09 04:14:52;;;;;;;4.13;3.80;;;;;;;;;;5071691;28;20413;-76
2021/06/09 04:17:19;;;;;;;4.50;4.10;;;;;;;;;;5071653;28;20503;-76
2021/06/09 04:19:47;;;;;;;4.27;3.87;;;;;;;;;;5073658;28;20468;-76
2021/06/09 04:22:14;;;;;;;5.00;4.60;;;;;;;;;;5072504;28;20437;-75
2021/06/09 04:24:41;;;;;;;4.90;4.50;;;;;;;;;;5075293;28;20414;-76
2021/06/09 04:27:13;;;;;;;4.03;3.73;;;;;;;;;;5075079;28;20505;-76
2021/06/09 04:29:40;;;;;;;5.10;4.60;;;;;;;;;;5075328;28;20416;-76
2021/06/09 04:32:06;;;;;;;5.60;5.10;;;;;;;;;;5075262;28;20540;-76
2021/06/09 04:34:53;;;;;;;4.90;4.50;;;;;;;;;;5074914;28;20445;-76
2021/06/09 04:37:20;;;;;;;4.50;4.10;;;;;;;;;;5075033;28;20771;-76
2021/06/09 04:39:47;;;;;;;3.70;3.40;;;;;;;;;;5074869;28;20812;-77
2021/06/09 04:42:13;;;;;;;3.57;3.27;;;;;;;;;;5075031;28;20579;-76
2021/06/09 04:44:40;;;;;;;3.60;3.10;;;;;;;;;;5074641;28;20405;-76
2021/06/09 04:47:07;;;;;;;5.10;3.73;;;;;;;;;;5074895;28;20429;-76
2021/06/09 04:49:34;;;;;;;3.37;3.07;;;;;;;;;;5076290;28;20516;-76
2021/06/09 04:52:01;;;;;;;3.60;3.30;;;;;;;;;;5080334;28;20952;-77
2021/06/09 04:54:27;;;;;;;3.57;3.23;;;;;;;;;;5074551;28;20424;-76
2021/06/09 04:56:53;;;;;;;3.10;2.77;;;;;;;;;;5074659;28;20418;-76
2021/06/09 04:59:19;;;;;;;3.63;3.33;;;;;;;;;;5074325;28;20406;-75
2021/06/09 05:01:45;;;;;;;3.40;3.07;;;;;;;;;;5075619;28;20438;-75
2021/06/09 05:04:11;;;;;;;3.90;3.60;;;;;;;;;;5079561;28;20459;-76
2021/06/09 05:06:37;;;;;;;3.23;2.90;;;;;;;;;;5074290;28;20725;-75
2021/06/09 05:09:05;;;;;;;4.27;3.87;;;;;;;;;;5074406;28;20418;-76
2021/06/09 05:11:49;;;;;;;4.03;3.73;;;;;;;;;;5067343;28;20438;-76
2021/06/09 05:14:18;;;;;;;4.40;3.20;;;;;;;;;;5071964;28;20413;-76
2021/06/09 05:16:47;;;;;;;4.27;3.20;;;;;;;;;;5074250;28;20425;-76
2021/06/09 05:19:17;;;;;;;3.30;3.00;;;;;;;;;;5074423;28;20459;-74
2021/06/09 05:21:43;;;;;;;3.93;3.23;;;;;;;;;;5071220;28;20470;-77
2021/06/09 05:24:10;;;;;;;3.63;3.33;;;;;;;;;;5074215;28;20406;-77
2021/06/09 05:26:37;;;;;;;3.73;3.07;;;;;;;;;;5070240;28;20422;-76
2021/06/09 05:29:06;;;;;;;3.80;3.10;;;;;;;;;;5074082;28;20486;-77
2021/06/09 05:31:33;;;;;;;4.00;3.60;;;;;;;;;;5073701;28;20438;-76
2021/06/09 05:34:00;;;;;;;6.83;3.77;;;;;;;;;;5073807;28;20418;-77
2021/06/09 05:36:27;;;;;;;3.50;3.20;;;;;;;;;;5074082;28;20440;-77
2021/06/09 05:38:53;;;;;;;6.10;5.60;;;;;;;;;;5073812;28;20787;-78
2021/06/09 05:41:19;;;;;;;4.13;2.90;;;;;;;;;;5068741;28;20475;-76
2021/06/09 05:43:45;;;;;;;7.03;3.20;;;;;;;;;;5073563;28;20407;-77
2021/06/09 05:46:11;;;;;;;3.87;2.97;;;;;;;;;;5073627;28;20425;-76
2021/06/09 05:48:39;;;;;;;4.10;2.97;;;;;;;;;;5073637;28;20764;-77
2021/06/09 05:51:05;;;;;;;5.07;2.90;;;;;;;;;;5069434;28;20441;-75
2021/06/09 05:53:31;;;;;;;5.23;2.70;;;;;;;;;;5073498;28;20763;-75
2021/06/09 05:55:58;;;;;;;5.50;2.90;;;;;;;;;;5073707;28;21255;-76
2021/06/09 05:58:24;;;;;;;3.40;3.00;;;;;;;;;;5073542;28;20415;-76
2021/06/09 06:01:01;;;;;;;3.20;2.90;;;;;;;;;;5068371;28;20470;-76
2021/06/09 06:03:27;;;;;;;6.27;3.13;;;;;;;;;;5067863;28;20414;-76
2021/06/09 06:05:57;;;;;;;4.73;2.90;;;;;;;;;;5073329;28;20513;-76
2021/06/09 06:08:27;;;;;;;2.90;2.60;;;;;;;;;;5073012;28;20421;-76
2021/06/09 06:10:54;;;;;;;4.07;2.70;;;;;;;;;;5073144;28;20433;-76
2021/06/09 06:13:20;;;;;;;3.10;2.80;;;;;;;;;;5071756;28;20418;-76
2021/06/09 06:15:47;;;;;;;5.33;3.00;;;;;;;;;;5071854;28;20415;-75
2021/06/09 06:18:14;;;;;;;4.53;2.80;;;;;;;;;;5072793;28;20481;-75
2021/06/09 06:20:45;;;;;;;3.47;2.80;;;;;;;;;;5072960;28;20485;-76
2021/06/09 06:23:12;;;;;;;2.90;2.60;;;;;;;;;;5070058;28;20419;-76
2021/06/09 06:25:42;;;;;;;4.27;2.70;;;;;;;;;;5073162;28;20814;-75
2021/06/09 06:28:08;;;;;;;3.80;2.90;;;;;;;;;;5078365;28;20406;-75
2021/06/09 06:30:34;;;;;;;3.53;2.90;;;;;;;;;;5071478;28;20508;-76
2021/06/09 06:33:01;;;;;;;6.13;3.17;;;;;;;;;;5069462;28;20542;-77
2021/06/09 06:35:28;;;;;;;3.20;2.70;;;;;;;;;;5064844;28;20461;-76
2021/06/09 06:37:54;;;;;;;3.50;2.90;;;;;;;;;;5071285;28;20416;-75
2021/06/09 06:40:23;;;;;;;4.40;3.00;;;;;;;;;;5077725;28;20450;-75
2021/06/09 06:42:50;;;;;;;5.47;2.83;;;;;;;;;;5068128;28;20934;-75
2021/06/09 06:45:16;;;;;;;3.60;2.50;;;;;;;;;;5056691;28;20420;-76
2021/06/09 06:47:42;;;;;;;5.53;3.10;;;;;;;;;;5068156;28;20447;-75
2021/06/09 06:50:09;;;;;;;5.03;2.87;;;;;;;;;;5067847;28;20460;-75
2021/06/09 06:52:35;;;;;;;4.10;2.90;;;;;;;;;;5068865;28;20442;-77
2021/06/09 06:55:02;;;;;;;6.70;3.10;;;;;;;;;;5061372;28;20437;-76
2021/06/09 06:57:31;;;;;;;4.33;3.00;;;;;;;;;;5061921;28;20420;-77
2021/06/09 06:59:58;;;;;;;9.20;2.90;;;;;;;;;;5060130;28;20481;-76
2021/06/09 07:02:24;;;;;;;4.17;3.17;;;;;;;;;;5062531;28;21181;-77
2021/06/09 07:04:50;;;;;;;5.63;3.67;;;;;;;;;;5048863;28;20450;-77
2021/06/09 07:07:17;;;;;;;6.33;2.80;;;;;;;;;;5048817;28;20593;-76
2021/06/09 07:09:44;;;;;;;10.23;3.20;;;;;;;;;;5048964;28;20429;-77
2021/06/09 07:12:10;;;;;;;4.70;3.10;;;;;;;;;;5048814;28;20791;-77
2021/06/09 07:14:36;;;;;;;3.13;2.77;;;;;;;;;;5048484;28;20523;-76
2021/06/09 07:17:03;;;;;;;3.87;2.70;;;;;;;;;;5057605;28;20447;-77
2021/06/09 07:19:29;;;;;;;3.13;2.83;;;;;;;;;;5048659;28;20422;-76
2021/06/09 07:21:55;;;;;;;3.30;3.00;;;;;;;;;;5048717;28;20439;-76
2021/06/09 07:24:21;;;;;;;7.70;3.10;;;;;;;;;;5048513;28;20447;-76
2021/06/09 07:26:48;;;;;;;3.53;2.47;;;;;;;;;;5048899;28;20496;-75
2021/06/09 07:29:19;;;;;;;3.53;2.63;;;;;;;;;;5050381;28;21055;-77
2021/06/09 07:31:45;;;;;;;6.77;2.70;;;;;;;;;;5048915;28;20811;-77
2021/06/09 07:34:12;;;;;;;5.87;2.90;;;;;;;;;;5048419;28;20490;-76
2021/06/09 07:36:43;;;;;;;5.73;2.80;;;;;;;;;;5056455;28;20843;-77
2021/06/09 07:39:11;;;;;;;6.27;2.40;;;;;;;;;;5048836;28;20415;-77
2021/06/09 07:41:40;;;;;;;3.07;2.33;;;;;;;;;;5048473;28;20822;-76
2021/06/09 07:44:06;;;;;;;5.33;2.50;;;;;;;;;;5048261;28;20415;-76
2021/06/09 07:46:33;;;;;;;4.47;2.77;;;;;;;;;;5065224;28;20437;-76
2021/06/09 07:49:01;;;;;;;4.57;2.30;;;;;;;;;;5068207;28;20501;-76
2021/06/09 07:51:28;;;;;;;5.17;2.03;;;;;;;;;;5059647;28;20435;-77
2021/06/09 07:53:57;;;;;;;3.57;2.30;;;;;;;;;;5052577;28;21011;-76
2021/06/09 07:56:30;;;;;;;3.90;2.07;;;;;;;;;;5058042;28;20415;-75
2021/06/09 07:58:57;;;;;;;4.30;2.73;;;;;;;;;;5052586;28;21202;-75
2021/06/09 08:01:23;;;;;;;4.20;2.00;;;;;;;;;;5052172;28;21006;-77
2021/06/09 08:03:50;;;;;;;4.00;2.40;;;;;;;;;;5071240;28;20495;-77
2021/06/09 08:06:17;;;;;;;2.70;2.30;;;;;;;;;;5072068;28;20430;-75
2021/06/09 08:08:44;;;;;;;4.90;2.50;;;;;;;;;;5071488;28;20506;-76
2021/06/09 08:11:11;;;;;;;5.80;3.33;;;;;;;;;;5058411;28;20435;-76
2021/06/09 08:13:37;;;;;;;3.40;2.20;;;;;;;;;;5051501;28;20431;-76
2021/06/09 08:16:10;;;;;;;4.57;2.63;;;;;;;;;;5051675;28;20826;-76
2021/06/09 08:18:36;;;;;;;6.90;3.03;;;;;;;;;;5051607;28;20409;-75
2021/06/09 08:21:05;;;;;;;4.53;2.40;;;;;;;;;;5051505;28;20502;-76
2021/06/09 08:23:31;;;;;;;3.47;2.37;;;;;;;;;;5058247;28;20459;-75
2021/06/09 08:25:57;;;;;;;4.77;2.37;;;;;;;;;;5071732;28;20794;-77
2021/06/09 08:28:24;;;;;;;3.73;2.50;;;;;;;;;;5058274;28;20912;-76
2021/06/09 08:30:50;;;;;;;5.50;2.50;;;;;;;;;;5051129;28;20438;-77
2021/06/09 08:33:16;;;;;;;3.80;2.50;;;;;;;;;;5051197;28;20522;-75
2021/06/09 08:35:42;;;;;;;3.60;2.30;;;;;;;;;;5051499;28;20427;-75
2021/06/09 08:38:08;;;;;;;2.90;2.10;;;;;;;;;;5054508;28;20549;-76
2021/06/09 08:40:34;;;;;;;5.40;2.77;;;;;;;;;;5070933;28;20517;-76
2021/06/09 08:43:01;;;;;;;3.90;3.43;;;;;;;;;;5062861;28;20410;-76
2021/06/09 08:45:29;;;;;;;4.07;2.33;;;;;;;;;;5051360;28;20423;-76
2021/06/09 08:47:55;;;;;;;3.23;2.20;;;;;;;;;;5051104;28;20494;-76
2021/06/09 08:50:21;;;;;;;3.70;2.30;;;;;;;;;;5051038;28;20423;-75
2021/06/09 08:52:49;;;;;;;3.10;2.60;;;;;;;;;;5050972;28;20423;-75
2021/06/09 08:55:15;;;;;;;4.63;2.40;;;;;;;;;;5051123;28;20419;-75
2021/06/09 08:57:41;;;;;;;2.83;2.60;;;;;;;;;;5051093;28;20424;-76
2021/06/09 09:00:08;;;;;;;2.97;2.40;;;;;;;;;;5050905;28;20463;-76
2021/06/09 09:02:34;;;;;;;4.10;2.70;;;;;;;;;;5060743;28;20517;-75
2021/06/09 09:05:00;;;;;;;3.40;2.53;;;;;;;;;;5052617;28;20431;-76
2021/06/09 09:07:28;;;;;;;4.60;2.50;;;;;;;;;;5050767;28;20442;-76
2021/06/09 09:10:00;;;;;;;3.23;2.50;;;;;;;;;;5059692;28;20434;-76
2021/06/09 09:12:26;;;;;;;3.70;2.43;;;;;;;;;;5050877;28;20532;-76
2021/06/09 09:14:52;;;;;;;2.90;2.47;;;;;;;;;;5051128;28;20753;-76
2021/06/09 09:17:18;;;;;;;4.50;2.83;;;;;;;;;;5050610;28;20649;-76
2021/06/09 09:19:46;;;;;;;3.43;2.60;;;;;;;;;;5048909;28;20435;-76
2021/06/09 09:22:18;;;;;;;3.37;3.07;;;;;;;;;;5050567;28;20795;-76
2021/06/09 09:24:45;;;;;;;3.30;2.40;;;;;;;;;;5056951;28;20414;-75
2021/06/09 09:27:15;;;;;;;2.80;2.60;;;;;;;;;;5070389;28;20419;-76
2021/06/09 09:29:58;;;;;;;4.47;2.83;;;;;;;;;;5062787;28;20458;-76
2021/06/09 09:32:24;;;;;;;2.30;2.10;;;;;;;;;;5050116;28;20478;-76
2021/06/09 09:34:51;;;;;;;2.87;2.30;;;;;;;;;;5052070;28;20475;-76
2021/06/09 09:37:19;;;;;;;3.30;2.70;;;;;;;;;;5050040;28;20460;-76
2021/06/09 09:39:47;;;;;;;3.03;2.70;;;;;;;;;;5064238;28;20489;-76
2021/06/09 09:42:19;;;;;;;3.80;2.83;;;;;;;;;;5050090;28;20444;-76
2021/06/09 09:44:45;;;;;;;4.33;2.70;;;;;;;;;;5049765;28;20908;-76
2021/06/09 09:47:19;;;;;;;3.50;3.20;;;;;;;;;;5049892;28;20412;-76
2021/06/09 09:49:45;;;;;;;3.63;3.00;;;;;;;;;;5053330;28;20422;-75
2021/06/09 09:52:11;;;;;;;3.97;3.20;;;;;;;;;;5055495;28;21311;-75
2021/06/09 09:54:38;;;;;;;3.30;3.00;;;;;;;;;;5057492;28;20500;-75
2021/06/09 09:57:06;;;;;;;3.43;3.13;;;;;;;;;;5049899;28;20939;-76
2021/06/09 09:59:32;;;;;;;3.30;3.00;;;;;;;;;;5049716;28;20416;-75
2021/06/09 10:02:01;;;;;;;3.50;2.77;;;;;;;;;;5064370;28;20463;-77
2021/06/09 10:04:30;;;;;;;3.30;3.03;;;;;;;;;;5049779;28;20841;-77
2021/06/09 10:06:56;;;;;;;3.13;2.93;;;;;;;;;;5049419;28;20435;-75
2021/06/09 10:09:26;;;;;;;5.17;2.77;;;;;;;;;;5049528;28;20427;-76
2021/06/09 10:11:59;;;;;;;2.57;2.37;;;;;;;;;;5049315;28;20443;-76
2021/06/09 10:14:29;;;;;;;3.03;2.47;;;;;;;;;;5049550;28;20415;-74
2021/06/09 10:17:01;;;;;;;2.83;2.63;;;;;;;;;;5048668;28;20428;-76
2021/06/09 10:19:28;;;;;;;3.77;3.47;;;;;;;;;;5049275;28;20776;-76
2021/06/09 10:22:03;;;;;;;3.83;3.10;;;;;;;;;;5049419;28;20839;-76
2021/06/09 10:24:29;;;;;;;3.03;2.80;;;;;;;;;;5049266;28;20407;-76
2021/06/09 10:27:00;;;;;;;2.90;2.70;;;;;;;;;;5058095;28;20421;-76
2021/06/09 10:29:29;;;;;;;3.60;3.30;;;;;;;;;;5063729;28;21018;-77
2021/06/09 10:31:59;;;;;;;4.50;3.00;;;;;;;;;;5049337;28;20435;-75
2021/06/09 10:34:26;;;;;;;2.80;2.60;;;;;;;;;;5049065;28;20815;-75
2021/06/09 10:36:53;;;;;;;2.70;2.50;;;;;;;;;;5048872;28;20784;-75
2021/06/09 10:39:20;;;;;;;3.03;2.83;;;;;;;;;;5061885;28;20509;-74
2021/06/09 10:41:50;;;;;;;3.63;3.40;;;;;;;;;;5069042;28;20477;-75
2021/06/09 10:44:18;;;;;;;3.00;2.80;;;;;;;;;;5048977;28;20598;-76
2021/06/09 10:46:49;;;;;;;2.70;2.50;;;;;;;;;;5048896;28;20855;-75
2021/06/09 10:49:16;;;;;;;4.20;3.10;;;;;;;;;;5048787;28;20419;-77
2021/06/09 10:51:43;;;;;;;3.63;3.33;;;;;;;;;;5054453;28;20443;-76
2021/06/09 10:54:14;;;;;;;3.37;3.00;;;;;;;;;;5061039;28;20419;-75
2021/06/09 10:56:42;;;;;;;3.73;3.43;;;;;;;;;;5048864;28;20428;-75
2021/06/09 10:59:10;;;;;;;2.97;2.77;;;;;;;;;;5048632;28;20523;-75
2021/06/09 11:01:36;;;;;;;3.77;3.47;;;;;;;;;;5049568;28;20471;-77
2021/06/09 11:04:03;;;;;;;3.00;2.80;;;;;;;;;;5048616;28;20420;-77
2021/06/09 11:06:40;;;;;;;3.57;3.37;;;;;;;;;;5048598;28;20439;-77
2021/06/09 11:09:18;;;;;;;3.30;3.10;;;;;;;;;;5048634;28;20422;-76
2021/06/09 11:11:46;;;;;;;3.00;2.80;;;;;;;;;;5048786;28;21251;-75
2021/06/09 11:14:18;;;;;;;3.33;3.03;;;;;;;;;;5048740;28;20416;-76
2021/06/09 11:16:48;;;;;;;3.40;3.10;;;;;;;;;;5048477;28;20473;-77
2021/06/09 11:19:30;;;;;;;3.30;3.10;;;;;;;;;;5046972;28;20423;-76
2021/06/09 11:22:12;;;;;;;3.20;3.00;;;;;;;;;;5048529;28;20862;-76
2021/06/09 11:24:38;;;;;;;4.60;2.67;;;;;;;;;;5048268;28;20420;-77
2021/06/09 11:27:26;;;;;;;3.77;3.43;;;;;;;;;;5048264;28;20411;-75
2021/06/09 11:29:52;;;;;;;3.57;3.30;;;;;;;;;;5064574;28;20912;-76
2021/06/09 11:32:23;;;;;;;3.77;3.53;;;;;;;;;;5052387;28;20476;-76
2021/06/09 11:34:58;;;;;;;3.40;3.10;;;;;;;;;;5052435;28;21058;-75
2021/06/09 11:37:24;;;;;;;3.33;2.83;;;;;;;;;;5052207;28;21081;-77
2021/06/09 11:40:04;;;;;;;2.97;2.77;;;;;;;;;;5067173;28;20417;-78
2021/06/09 11:42:31;;;;;;;3.10;2.90;;;;;;;;;;5052468;28;20439;-78
2021/06/09 11:44:58;;;;;;;2.97;2.67;;;;;;;;;;5052238;28;20408;-78
2021/06/09 11:47:25;;;;;;;4.17;3.87;;;;;;;;;;5052340;28;20419;-76
2021/06/09 11:50:12;;;;;;;5.03;4.20;;;;;;;;;;5051681;28;20407;-76
2021/06/09 11:52:56;;;;;;;4.20;3.90;;;;;;;;;;5052807;28;20833;-77
2021/06/09 11:55:25;;;;;;;3.60;3.30;;;;;;;;;;5075980;28;20458;-76
2021/06/09 11:58:07;;;;;;;3.97;3.67;;;;;;;;;;5052323;28;20442;-78
2021/06/09 12:00:33;;;;;;;3.30;3.10;;;;;;;;;;5060308;28;20792;-75
2021/06/09 12:03:18;;;;;;;3.43;3.23;;;;;;;;;;5052753;28;20423;-77
2021/06/09 12:05:44;;;;;;;3.93;3.73;;;;;;;;;;5052083;28;20435;-76
2021/06/09 12:08:11;;;;;;;5.20;4.90;;;;;;;;;;5051451;28;20431;-78
2021/06/09 12:10:37;;;;;;;5.10;4.70;;;;;;;;;;5051658;28;20437;-79
2021/06/09 12:13:05;;;;;;;5.80;5.40;;;;;;;;;;5051905;28;20415;-78
2021/06/09 12:15:31;;;;;;;4.67;4.37;;;;;;;;;;5051763;28;20808;-79
2021/06/09 12:17:58;;;;;;;4.60;4.30;;;;;;;;;;5051601;28;20447;-79
2021/06/09 12:20:24;;;;;;;4.60;4.30;;;;;;;;;;5051604;28;20459;-76
2021/06/09 12:22:51;;;;;;;4.17;3.87;;;;;;;;;;5051373;28;20518;-76
2021/06/09 12:25:23;;;;;;;4.30;4.00;;;;;;;;;;5051670;28;20882;-76
2021/06/09 12:28:20;;;;;;;4.33;3.80;;;;;;;;;;5054588;28;20774;-78
2021/06/09 12:30:52;;;;;;;5.83;4.00;;;;;;;;;;5054860;28;20442;-78
2021/06/09 12:33:18;;;;;;;4.10;3.80;;;;;;;;;;5065963;28;20513;-78
2021/06/09 12:35:44;;;;;;;5.07;3.60;;;;;;;;;;5051469;28;20439;-77
2021/06/09 12:38:10;;;;;;;4.17;3.87;;;;;;;;;;5058617;28;20413;-80
2021/06/09 12:40:41;;;;;;;3.90;3.60;;;;;;;;;;5057175;28;20481;-77
2021/06/09 12:43:08;;;;;;;4.07;3.80;;;;;;;;;;5050914;28;20781;-80
2021/06/09 12:45:36;;;;;;;4.50;4.17;;;;;;;;;;5051338;28;20887;-78
2021/06/09 12:48:09;;;;;;;5.97;4.23;;;;;;;;;;5055399;28;20414;-78
2021/06/09 12:50:39;;;;;;;4.90;4.60;;;;;;;;;;5052195;28;20486;-77
2021/06/09 12:53:27;;;;;;;4.20;3.90;;;;;;;;;;5050680;28;20916;-77
2021/06/09 12:55:54;;;;;;;4.43;4.13;;;;;;;;;;5051238;28;20403;-77
2021/06/09 12:58:22;;;;;;;4.80;4.50;;;;;;;;;;5050850;28;21173;-77
2021/06/09 13:00:52;;;;;;;5.03;4.63;;;;;;;;;;5051845;28;20479;-77
2021/06/09 13:03:27;;;;;;;4.60;4.30;;;;;;;;;;5054620;28;20432;-79
2021/06/09 13:05:58;;;;;;;5.70;5.20;;;;;;;;;;5050773;28;20860;-77
2021/06/09 13:08:35;;;;;;;4.87;4.57;;;;;;;;;;5050379;28;20419;-76
2021/06/09 13:11:04;;;;;;;4.87;4.47;;;;;;;;;;5050517;28;20841;-78
2021/06/09 13:13:30;;;;;;;6.40;4.90;;;;;;;;;;5050412;28;20415;-76
2021/06/09 13:15:57;;;;;;;5.00;4.57;;;;;;;;;;5050574;28;20426;-77
2021/06/09 13:18:44;;;;;;;5.50;5.00;;;;;;;;;;5050517;28;20403;-76
2021/06/09 13:21:11;;;;;;;5.77;5.27;;;;;;;;;;5050338;28;21009;-77
2021/06/09 13:23:37;;;;;;;5.37;4.93;;;;;;;;;;5050200;28;20419;-77
2021/06/09 13:26:10;;;;;;;5.20;4.80;;;;;;;;;;5050500;28;20498;-77
2021/06/09 13:28:36;;;;;;;4.90;4.60;;;;;;;;;;5061641;28;20761;-77
2021/06/09 13:31:03;;;;;;;4.80;4.40;;;;;;;;;;5070227;28;20795;-77
2021/06/09 13:33:29;;;;;;;4.83;4.53;;;;;;;;;;5070063;28;20413;-77
2021/06/09 13:35:55;;;;;;;7.73;4.97;;;;;;;;;;5070141;28;20414;-77
2021/06/09 13:38:21;;;;;;;5.27;4.87;;;;;;;;;;5070277;28;20443;-77
2021/06/09 13:40:48;;;;;;;5.03;4.70;;;;;;;;;;5070191;28;20493;-76
2021/06/09 13:43:15;;;;;;;5.60;5.10;;;;;;;;;;5070111;28;20410;-78
2021/06/09 13:45:43;;;;;;;5.80;5.30;;;;;;;;;;5067491;28;20415;-77
2021/06/09 13:48:11;;;;;;;5.30;4.90;;;;;;;;;;5055489;28;20418;-77
2021/06/09 13:50:38;;;;;;;5.40;5.00;;;;;;;;;;5050897;28;20451;-77
2021/06/09 13:53:06;;;;;;;5.23;4.83;;;;;;;;;;5050004;28;20423;-77
2021/06/09 13:55:50;;;;;;;5.20;4.80;;;;;;;;;;5049896;28;20423;-78
2021/06/09 13:58:24;;;;;;;5.30;4.83;;;;;;;;;;5053157;28;20426;-77
2021/06/09 14:00:51;;;;;;;5.00;4.70;;;;;;;;;;5054308;28;20471;-78
2021/06/09 14:03:18;;;;;;;5.40;5.00;;;;;;;;;;5065371;28;20506;-79
2021/06/09 14:05:44;;;;;;;5.47;5.17;;;;;;;;;;5064837;28;20430;-78
2021/06/09 14:08:11;;;;;;;6.73;6.17;;;;;;;;;;5069411;28;20414;-79
2021/06/09 14:10:39;;;;;;;6.10;5.60;;;;;;;;;;5075695;28;20597;-76
2021/06/09 14:13:12;;;;;;;5.70;5.30;;;;;;;;;;5066565;28;20414;-78
2021/06/09 14:15:41;;;;;;;5.80;5.30;;;;;;;;;;5065096;28;20836;-76
2021/06/09 14:18:09;;;;;;;6.40;5.90;;;;;;;;;;5067886;28;20422;-76
2021/06/09 14:20:37;;;;;;;5.60;5.20;;;;;;;;;;5069194;28;20852;-79
2021/06/09 14:23:04;;;;;;;5.90;5.60;;;;;;;;;;5069189;28;20410;-77
2021/06/09 14:25:37;;;;;;;6.30;5.90;;;;;;;;;;5069281;28;20473;-77
2021/06/09 14:28:06;;;;;;;5.23;4.93;;;;;;;;;;5059166;28;20399;-79
2021/06/09 14:30:51;;;;;;;6.10;5.70;;;;;;;;;;5069132;28;20434;-76
2021/06/09 14:36:07;;;;;;;5.13;4.83;;;;;;;;;;5061410;28;20426;-75
2021/06/09 14:38:38;;;;;;;5.90;5.50;;;;;;;;;;5069040;28;20422;-77
2021/06/09 14:41:13;;;;;;;5.37;5.03;;;;;;;;;;5061419;28;20590;-77
2021/06/09 14:43:50;;;;;;;4.80;4.50;;;;;;;;;;5069260;28;20519;-79
2021/06/09 14:46:21;;;;;;;5.80;5.40;;;;;;;;;;5069148;28;20409;-77
2021/06/09 14:48:47;;;;;;;5.70;5.30;;;;;;;;;;5069069;28;20717;-76
2021/06/09 14:51:20;;;;;;;4.97;4.63;;;;;;;;;;5068481;28;20438;-76
2021/06/09 14:53:46;;;;;;;5.33;4.83;;;;;;;;;;5068707;28;20406;-77